Mst-radomir — OMCU — position and weather

sailwx.info

Track history (hours):
 
Tides and Currents Weather Stations Pressure Air Temp Water Temp Dewpoint Dewpoint Depression Visibility Wind Speed Wind Dir Waves Ship Positions

Mst-radomir

Last reported at 2018-Feb-17 14:06 UTC. Time now 2018-Feb-21 11:26 UTC.
Position N 44°18' E 028°03'.

Length 105 m; draft 1.8 m.

Type: Cargo ship. MMSI: 267010006.

Date/timePositionNaut miles runAvg speedWind from/ knotsBaromVisibWave heightAir tempDewpointWater temp
2018-Feb-17 14:06N 44°18' E 028°03'2 4.0
2018-Feb-17 13:40N 44°17' E 028°05'1 5.1
2018-Feb-17 13:30N 44°16' E 028°06'3 5.3
2018-Feb-17 13:00N 44°16' E 028°09'3 5.2
2018-Feb-17 12:30N 44°15' E 028°13'3 5.2
2018-Feb-17 12:00N 44°15' E 028°17'3 5.2
2018-Feb-17 11:30N 44°15' E 028°20'3 5.2
2018-Feb-17 11:00N 44°13' E 028°23'3 5.2
2018-Feb-17 10:30N 44°11' E 028°24'6 5.0
2018-Feb-17 09:23N 44°06' E 028°28'2 5.2
2018-Feb-17 08:59N 44°06' E 028°31'3 5.4
2018-Feb-17 08:30N 44°06' E 028°35'2 3.7
2018-Feb-17 08:00N 44°06' E 028°37'1 1.7
2018-Feb-17 07:30N 44°06' E 028°38'1 2.7
2018-Feb-17 06:59N 44°07' E 028°39'0 0.0
2018-Feb-17 06:29N 44°07' E 028°39'0 0.0
2018-Feb-17 05:59N 44°07' E 028°39'0 0.0
2018-Feb-17 05:29N 44°07' E 028°39'0 0.1
2018-Feb-17 04:56N 44°07' E 028°39'0 0.0
2018-Feb-17 04:26N 44°07' E 028°39'0 0.0
2018-Feb-17 03:59N 44°07' E 028°39'0 0.0
2018-Feb-17 03:29N 44°07' E 028°39'0 0.0
2018-Feb-17 02:59N 44°07' E 028°39'0 0.0
2018-Feb-17 02:29N 44°07' E 028°39'0 0.0
2018-Feb-17 01:59N 44°07' E 028°39'0 0.0
2018-Feb-17 01:29N 44°07' E 028°39'0 0.0
2018-Feb-17 00:59N 44°07' E 028°39'0 0.0
2018-Feb-17 00:29N 44°07' E 028°39'0 0.0
2018-Feb-16 23:59N 44°07' E 028°39'0 0.0
2018-Feb-16 23:29N 44°07' E 028°39'0 0.0
2018-Feb-16 22:59N 44°07' E 028°39'0 0.0
2018-Feb-16 22:29N 44°07' E 028°39'0 0.0
2018-Feb-16 21:59N 44°07' E 028°39'0 0.0
2018-Feb-16 21:26N 44°07' E 028°39'0 0.0
2018-Feb-16 20:59N 44°07' E 028°39'0 0.0
2018-Feb-16 20:26N 44°07' E 028°39'0 0.0
2018-Feb-16 19:59N 44°07' E 028°39'0 0.0
2018-Feb-16 19:29N 44°07' E 028°39'0 0.0
2018-Feb-16 18:56N 44°07' E 028°39'0 0.0
2018-Feb-16 18:29N 44°07' E 028°39'0 0.1
2018-Feb-16 17:59N 44°07' E 028°39'0 0.0
2018-Feb-16 17:29N 44°07' E 028°39'0 0.6
2018-Feb-16 17:01N 44°08' E 028°39'2 3.4
2018-Feb-16 16:31N 44°09' E 028°40'1 1.1
2018-Feb-16 15:59N 44°10' E 028°39'0 0.0
2018-Feb-16 15:29N 44°10' E 028°39'0 0.0
2018-Feb-16 14:56N 44°10' E 028°39'0 0.0
2018-Feb-16 14:29N 44°10' E 028°39'0 0.0
2018-Feb-16 13:56N 44°10' E 028°39'0 0.0
2018-Feb-16 13:29N 44°10' E 028°39'0 0.0
2018-Feb-16 12:56N 44°10' E 028°39'0 0.0
2018-Feb-16 12:29N 44°10' E 028°39'0 0.0
2018-Feb-16 11:56N 44°10' E 028°39'0 0.0
2018-Feb-16 11:29N 44°10' E 028°39'0 0.0
2018-Feb-16 10:59N 44°10' E 028°39'0 0.0
2018-Feb-16 10:29N 44°10' E 028°39'0 0.0
2018-Feb-16 09:59N 44°10' E 028°39'0 0.0
2018-Feb-16 09:29N 44°10' E 028°39'0 0.0
2018-Feb-16 08:59N 44°10' E 028°39'0 0.0
2018-Feb-16 08:29N 44°10' E 028°39'0 0.0
2018-Feb-16 07:59N 44°10' E 028°39'0 0.0
2018-Feb-16 07:29N 44°10' E 028°39'0 0.0
2018-Feb-16 06:59N 44°10' E 028°39'0 0.0
2018-Feb-16 06:29N 44°10' E 028°39'0 0.0
2018-Feb-16 05:59N 44°10' E 028°39'0 0.0
2018-Feb-16 05:26N 44°10' E 028°39'0 0.0
2018-Feb-16 04:53N 44°10' E 028°39'0 0.0
2018-Feb-16 04:29N 44°10' E 028°39'1 1.9
2018-Feb-16 04:00N 44°09' E 028°40'2 3.7
2018-Feb-16 03:30N 44°07' E 028°39'0 0.0
2018-Feb-16 03:00N 44°07' E 028°39'0 0.0
2018-Feb-16 02:21N 44°07' E 028°39'0 0.0
2018-Feb-16 02:00N 44°07' E 028°39'0 0.0
2018-Feb-16 01:30N 44°07' E 028°39'0 0.0
2018-Feb-16 01:00N 44°07' E 028°39'0 0.0
2018-Feb-16 00:30N 44°07' E 028°39'0 0.0
2018-Feb-16 00:00N 44°07' E 028°39'0 0.0
2018-Feb-15 23:30N 44°07' E 028°39'0 0.0
2018-Feb-15 23:00N 44°07' E 028°39'0 0.0
2018-Feb-15 22:27N 44°07' E 028°39'0 0.0
2018-Feb-15 22:00N 44°07' E 028°39'0 0.0
2018-Feb-15 21:30N 44°07' E 028°39'0 0.0
2018-Feb-15 21:00N 44°07' E 028°39'0 0.0
2018-Feb-15 20:30N 44°07' E 028°39'0 0.0
2018-Feb-15 20:00N 44°07' E 028°39'0 0.0
2018-Feb-15 19:30N 44°07' E 028°39'0 0.0
2018-Feb-15 19:00N 44°07' E 028°39'0 0.0
2018-Feb-15 18:30N 44°07' E 028°39'0 0.0
2018-Feb-15 18:00N 44°07' E 028°39'0 0.0
2018-Feb-15 17:30N 44°07' E 028°39'0 0.0
2018-Feb-15 17:00N 44°07' E 028°39'0 0.0
2018-Feb-15 16:30N 44°07' E 028°39'0 0.0
2018-Feb-15 16:00N 44°07' E 028°39'0 0.0
2018-Feb-15 15:30N 44°07' E 028°39'0 0.0
2018-Feb-15 15:00N 44°07' E 028°39'0 0.0
2018-Feb-15 14:30N 44°07' E 028°39'0 0.0
2018-Feb-15 14:00N 44°07' E 028°39'0 0.0
2018-Feb-15 13:30N 44°07' E 028°39'0 0.0
2018-Feb-15 13:00N 44°07' E 028°39'0 0.0
2018-Feb-15 12:30N 44°07' E 028°39'0 0.0
2018-Feb-15 12:00N 44°07' E 028°39'0 0.0
2018-Feb-15 11:30N 44°07' E 028°39'0 0.0
2018-Feb-15 11:00N 44°07' E 028°39'1 2.8
2018-Feb-15 10:30N 44°06' E 028°38'1 1.9
2018-Feb-15 10:00N 44°06' E 028°37'0 0.9
2018-Feb-15 09:30N 44°06' E 028°37'0 0.3
2018-Feb-15 09:00N 44°06' E 028°36'0 0.0
2018-Feb-15 08:30N 44°06' E 028°36'0 1.0
2018-Feb-15 08:00N 44°06' E 028°36'3 5.4
2018-Feb-15 07:25N 44°06' E 028°31'5 4.7
2018-Feb-15 06:21N 44°09' E 028°26'2 5.4
2018-Feb-15 05:58N 44°11' E 028°24'2 5.4
2018-Feb-15 05:30N 44°13' E 028°23'3 5.4
2018-Feb-15 05:00N 44°15' E 028°20'1 2.6
2018-Feb-15 04:30N 44°15' E 028°18'0 0.0
2018-Feb-15 03:59N 44°15' E 028°18'0 0.0
2018-Feb-15 03:30N 44°15' E 028°18'0 0.0
2018-Feb-15 03:00N 44°15' E 028°18'0 0.0
2018-Feb-15 02:30N 44°15' E 028°18'0 0.0
2018-Feb-15 02:00N 44°15' E 028°18'0 0.0
2018-Feb-15 01:30N 44°15' E 028°18'0 0.0
2018-Feb-15 01:00N 44°15' E 028°18'0 0.0
2018-Feb-15 00:30N 44°15' E 028°18'0 0.0
2018-Feb-15 00:00N 44°15' E 028°18'0 0.0
2018-Feb-14 23:30N 44°15' E 028°18'0 0.0
2018-Feb-14 23:00N 44°15' E 028°18'0 0.0
2018-Feb-14 22:30N 44°15' E 028°18'0 0.0
2018-Feb-14 22:00N 44°15' E 028°18'0 0.0
2018-Feb-14 21:30N 44°15' E 028°18'0 0.0
2018-Feb-14 20:57N 44°15' E 028°18'0 0.0
2018-Feb-14 20:30N 44°15' E 028°18'0 0.0
2018-Feb-14 20:00N 44°15' E 028°18'1 2.3
2018-Feb-14 19:30N 44°15' E 028°17'3 5.6
2018-Feb-14 19:00N 44°16' E 028°13'4 5.6
2018-Feb-14 18:21N 44°16' E 028°08'  
Track history (hours):
 
Tides and Currents Weather Stations Pressure Air Temp Water Temp Dewpoint Dewpoint Depression Visibility Wind Speed Wind Dir Waves Ship Positions

Mst-radomir

Last reported at 2018-Feb-17 14:06 UTC. Time now 2018-Feb-21 11:26 UTC.
Position N 44°18' E 028°03'.

Length 105 m; draft 1.8 m.

Type: Cargo ship. MMSI: 267010006.

Date/timePositionNaut miles runAvg speedWind from/ knotsBaromVisibWave heightAir tempDewpointWater temp
2018-Feb-17 14:06N 44°18' E 028°03'2 4.0
2018-Feb-17 13:40N 44°17' E 028°05'1 5.1
2018-Feb-17 13:30N 44°16' E 028°06'3 5.3
2018-Feb-17 13:00N 44°16' E 028°09'3 5.2
2018-Feb-17 12:30N 44°15' E 028°13'3 5.2
2018-Feb-17 12:00N 44°15' E 028°17'3 5.2
2018-Feb-17 11:30N 44°15' E 028°20'3 5.2
2018-Feb-17 11:00N 44°13' E 028°23'3 5.2
2018-Feb-17 10:30N 44°11' E 028°24'6 5.0
2018-Feb-17 09:23N 44°06' E 028°28'2 5.2
2018-Feb-17 08:59N 44°06' E 028°31'3 5.4
2018-Feb-17 08:30N 44°06' E 028°35'2 3.7
2018-Feb-17 08:00N 44°06' E 028°37'1 1.7
2018-Feb-17 07:30N 44°06' E 028°38'1 2.7
2018-Feb-17 06:59N 44°07' E 028°39'0 0.0
2018-Feb-17 06:29N 44°07' E 028°39'0 0.0
2018-Feb-17 05:59N 44°07' E 028°39'0 0.0
2018-Feb-17 05:29N 44°07' E 028°39'0 0.1
2018-Feb-17 04:56N 44°07' E 028°39'0 0.0
2018-Feb-17 04:26N 44°07' E 028°39'0 0.0
2018-Feb-17 03:59N 44°07' E 028°39'0 0.0
2018-Feb-17 03:29N 44°07' E 028°39'0 0.0
2018-Feb-17 02:59N 44°07' E 028°39'0 0.0
2018-Feb-17 02:29N 44°07' E 028°39'0 0.0
2018-Feb-17 01:59N 44°07' E 028°39'0 0.0
2018-Feb-17 01:29N 44°07' E 028°39'0 0.0
2018-Feb-17 00:59N 44°07' E 028°39'0 0.0
2018-Feb-17 00:29N 44°07' E 028°39'0 0.0
2018-Feb-16 23:59N 44°07' E 028°39'0 0.0
2018-Feb-16 23:29N 44°07' E 028°39'0 0.0
2018-Feb-16 22:59N 44°07' E 028°39'0 0.0
2018-Feb-16 22:29N 44°07' E 028°39'0 0.0
2018-Feb-16 21:59N 44°07' E 028°39'0 0.0
2018-Feb-16 21:26N 44°07' E 028°39'0 0.0
2018-Feb-16 20:59N 44°07' E 028°39'0 0.0
2018-Feb-16 20:26N 44°07' E 028°39'0 0.0
2018-Feb-16 19:59N 44°07' E 028°39'0 0.0
2018-Feb-16 19:29N 44°07' E 028°39'0 0.0
2018-Feb-16 18:56N 44°07' E 028°39'0 0.0
2018-Feb-16 18:29N 44°07' E 028°39'0 0.1
2018-Feb-16 17:59N 44°07' E 028°39'0 0.0
2018-Feb-16 17:29N 44°07' E 028°39'0 0.6
2018-Feb-16 17:01N 44°08' E 028°39'2 3.4
2018-Feb-16 16:31N 44°09' E 028°40'1 1.1
2018-Feb-16 15:59N 44°10' E 028°39'0 0.0
2018-Feb-16 15:29N 44°10' E 028°39'0 0.0
2018-Feb-16 14:56N 44°10' E 028°39'0 0.0
2018-Feb-16 14:29N 44°10' E 028°39'0 0.0
2018-Feb-16 13:56N 44°10' E 028°39'0 0.0
2018-Feb-16 13:29N 44°10' E 028°39'0 0.0
2018-Feb-16 12:56N 44°10' E 028°39'0 0.0
2018-Feb-16 12:29N 44°10' E 028°39'0 0.0
2018-Feb-16 11:56N 44°10' E 028°39'0 0.0
2018-Feb-16 11:29N 44°10' E 028°39'0 0.0
2018-Feb-16 10:59N 44°10' E 028°39'0 0.0
2018-Feb-16 10:29N 44°10' E 028°39'0 0.0
2018-Feb-16 09:59N 44°10' E 028°39'0 0.0
2018-Feb-16 09:29N 44°10' E 028°39'0 0.0
2018-Feb-16 08:59N 44°10' E 028°39'0 0.0
2018-Feb-16 08:29N 44°10' E 028°39'0 0.0
2018-Feb-16 07:59N 44°10' E 028°39'0 0.0
2018-Feb-16 07:29N 44°10' E 028°39'0 0.0
2018-Feb-16 06:59N 44°10' E 028°39'0 0.0
2018-Feb-16 06:29N 44°10' E 028°39'0 0.0
2018-Feb-16 05:59N 44°10' E 028°39'0 0.0
2018-Feb-16 05:26N 44°10' E 028°39'0 0.0
2018-Feb-16 04:53N 44°10' E 028°39'0 0.0
2018-Feb-16 04:29N 44°10' E 028°39'1 1.9
2018-Feb-16 04:00N 44°09' E 028°40'2 3.7
2018-Feb-16 03:30N 44°07' E 028°39'0 0.0
2018-Feb-16 03:00N 44°07' E 028°39'0 0.0
2018-Feb-16 02:21N 44°07' E 028°39'0 0.0
2018-Feb-16 02:00N 44°07' E 028°39'0 0.0
2018-Feb-16 01:30N 44°07' E 028°39'0 0.0
2018-Feb-16 01:00N 44°07' E 028°39'0 0.0
2018-Feb-16 00:30N 44°07' E 028°39'0 0.0
2018-Feb-16 00:00N 44°07' E 028°39'0 0.0
2018-Feb-15 23:30N 44°07' E 028°39'0 0.0
2018-Feb-15 23:00N 44°07' E 028°39'0 0.0
2018-Feb-15 22:27N 44°07' E 028°39'0 0.0
2018-Feb-15 22:00N 44°07' E 028°39'0 0.0
2018-Feb-15 21:30N 44°07' E 028°39'0 0.0
2018-Feb-15 21:00N 44°07' E 028°39'0 0.0
2018-Feb-15 20:30N 44°07' E 028°39'0 0.0
2018-Feb-15 20:00N 44°07' E 028°39'0 0.0
2018-Feb-15 19:30N 44°07' E 028°39'0 0.0
2018-Feb-15 19:00N 44°07' E 028°39'0 0.0
2018-Feb-15 18:30N 44°07' E 028°39'0 0.0
2018-Feb-15 18:00N 44°07' E 028°39'0 0.0
2018-Feb-15 17:30N 44°07' E 028°39'0 0.0
2018-Feb-15 17:00N 44°07' E 028°39'0 0.0
2018-Feb-15 16:30N 44°07' E 028°39'0 0.0
2018-Feb-15 16:00N 44°07' E 028°39'0 0.0
2018-Feb-15 15:30N 44°07' E 028°39'0 0.0
2018-Feb-15 15:00N 44°07' E 028°39'0 0.0
2018-Feb-15 14:30N 44°07' E 028°39'0 0.0
2018-Feb-15 14:00N 44°07' E 028°39'0 0.0
2018-Feb-15 13:30N 44°07' E 028°39'0 0.0
2018-Feb-15 13:00N 44°07' E 028°39'0 0.0
2018-Feb-15 12:30N 44°07' E 028°39'0 0.0
2018-Feb-15 12:00N 44°07' E 028°39'0 0.0
2018-Feb-15 11:30N 44°07' E 028°39'0 0.0
2018-Feb-15 11:00N 44°07' E 028°39'1 2.8
2018-Feb-15 10:30N 44°06' E 028°38'1 1.9
2018-Feb-15 10:00N 44°06' E 028°37'0 0.9
2018-Feb-15 09:30N 44°06' E 028°37'0 0.3
2018-Feb-15 09:00N 44°06' E 028°36'0 0.0
2018-Feb-15 08:30N 44°06' E 028°36'0 1.0
2018-Feb-15 08:00N 44°06' E 028°36'3 5.4
2018-Feb-15 07:25N 44°06' E 028°31'5 4.7
2018-Feb-15 06:21N 44°09' E 028°26'2 5.4
2018-Feb-15 05:58N 44°11' E 028°24'2 5.4
2018-Feb-15 05:30N 44°13' E 028°23'3 5.4
2018-Feb-15 05:00N 44°15' E 028°20'1 2.6
2018-Feb-15 04:30N 44°15' E 028°18'0 0.0
2018-Feb-15 03:59N 44°15' E 028°18'0 0.0
2018-Feb-15 03:30N 44°15' E 028°18'0 0.0
2018-Feb-15 03:00N 44°15' E 028°18'0 0.0
2018-Feb-15 02:30N 44°15' E 028°18'0 0.0
2018-Feb-15 02:00N 44°15' E 028°18'0 0.0
2018-Feb-15 01:30N 44°15' E 028°18'0 0.0
2018-Feb-15 01:00N 44°15' E 028°18'0 0.0
2018-Feb-15 00:30N 44°15' E 028°18'0 0.0
2018-Feb-15 00:00N 44°15' E 028°18'0 0.0
2018-Feb-14 23:30N 44°15' E 028°18'0 0.0
2018-Feb-14 23:00N 44°15' E 028°18'0 0.0
2018-Feb-14 22:30N 44°15' E 028°18'0 0.0
2018-Feb-14 22:00N 44°15' E 028°18'0 0.0
2018-Feb-14 21:30N 44°15' E 028°18'0 0.0
2018-Feb-14 20:57N 44°15' E 028°18'0 0.0
2018-Feb-14 20:30N 44°15' E 028°18'0 0.0
2018-Feb-14 20:00N 44°15' E 028°18'1 2.3
2018-Feb-14 19:30N 44°15' E 028°17'3 5.6
2018-Feb-14 19:00N 44°16' E 028°13'4 5.6
2018-Feb-14 18:21N 44°16' E 028°08'  

Dump ship's entire track history